createdAt,value
2022-12-25T00:01:24.934Z,40.63
2022-12-25T00:03:52.195Z,40.92
2022-12-25T00:06:19.475Z,42.20
2022-12-25T00:08:46.289Z,43.53
2022-12-25T00:11:15.179Z,45.78
2022-12-25T00:13:42.111Z,41.53
2022-12-25T00:16:19.598Z,43.33
2022-12-25T00:18:46.933Z,44.90
2022-12-25T00:21:14.250Z,46.03
2022-12-25T00:23:41.320Z,43.50
2022-12-25T00:26:10.373Z,43.42
2022-12-25T00:28:37.242Z,46.65
2022-12-25T00:31:08.868Z,47.40
2022-12-25T00:33:39.378Z,43.95
2022-12-25T00:36:06.812Z,43.47
2022-12-25T00:38:34.120Z,48.72
2022-12-25T00:41:07.641Z,46.00
2022-12-25T00:43:34.536Z,49.78
2022-12-25T00:46:02.760Z,45.80
2022-12-25T00:48:29.833Z,44.30
2022-12-25T00:50:57.615Z,48.10
2022-12-25T00:53:24.574Z,46.40
2022-12-25T00:55:57.349Z,47.25
2022-12-25T00:58:24.813Z,47.17
2022-12-25T01:00:51.947Z,49.63
2022-12-25T01:03:18.853Z,45.92
2022-12-25T01:05:57.781Z,50.03
2022-12-25T01:08:24.659Z,49.88
2022-12-25T01:11:04.740Z,51.42
2022-12-25T01:13:31.936Z,53.95
2022-12-25T01:15:58.996Z,52.75
2022-12-25T01:18:25.751Z,51.90
2022-12-25T01:20:52.840Z,48.83
2022-12-25T01:23:19.582Z,50.10
2022-12-25T01:25:46.679Z,53.08
2022-12-25T01:28:13.750Z,52.88
2022-12-25T01:30:40.871Z,49.97
2022-12-25T01:33:07.699Z,49.05
2022-12-25T01:35:34.766Z,53.53
2022-12-25T01:38:01.509Z,53.58
2022-12-25T01:40:28.634Z,48.33
2022-12-25T01:42:55.904Z,52.80
2022-12-25T01:45:38.016Z,51.30
2022-12-25T01:48:17.764Z,48.72
2022-12-25T01:50:47.850Z,46.95
2022-12-25T01:53:14.597Z,57.30
2022-12-25T01:55:42.507Z,47.03
2022-12-25T01:58:09.278Z,45.25
2022-12-25T02:00:36.384Z,48.53
2022-12-25T02:03:03.335Z,47.58
2022-12-25T02:05:32.105Z,45.13
2022-12-25T02:08:01.138Z,44.97
2022-12-25T02:10:28.203Z,45.50
2022-12-25T02:12:54.966Z,42.92
2022-12-25T02:15:22.911Z,42.75
2022-12-25T02:18:07.604Z,42.83
2022-12-25T02:21:12.068Z,42.53
2022-12-25T02:24:07.284Z,39.40
2022-12-25T02:26:42.189Z,42.88
2022-12-25T02:29:23.935Z,39.85
2022-12-25T02:31:59.557Z,40.08
2022-12-25T02:37:05.338Z,38.65
2022-12-25T02:40:00.008Z,36.22
2022-12-25T02:43:00.385Z,38.88
2022-12-25T02:45:55.264Z,42.08
2022-12-25T02:48:42.008Z,38.28
2022-12-25T02:51:29.909Z,37.00
2022-12-25T02:54:16.012Z,34.58
2022-12-25T02:59:46.981Z,40.90
2022-12-25T03:02:33.579Z,35.10
2022-12-25T03:05:20.519Z,35.30
2022-12-25T03:07:47.283Z,31.60
2022-12-25T03:10:32.946Z,34.15
2022-12-25T03:13:14.598Z,35.08
2022-12-25T03:16:00.398Z,31.23
2022-12-25T03:18:27.641Z,36.45
2022-12-25T03:21:13.498Z,33.80
2022-12-25T03:24:00.459Z,30.63
2022-12-25T03:26:46.234Z,31.90
2022-12-25T03:29:35.840Z,29.92
2022-12-25T03:32:29.141Z,28.92
2022-12-25T03:35:25.378Z,30.08
2022-12-25T03:38:35.054Z,29.08
2022-12-25T03:41:35.883Z,28.48
2022-12-25T03:44:35.580Z,28.05
2022-12-25T03:47:28.562Z,26.48
2022-12-25T03:50:20.747Z,29.70
2022-12-25T03:53:06.138Z,26.60
2022-12-25T03:58:43.254Z,28.45
2022-12-25T04:01:28.981Z,29.95
2022-12-25T04:04:14.577Z,25.88
2022-12-25T04:09:45.536Z,23.80
2022-12-25T04:15:16.728Z,21.67
2022-12-25T04:20:47.748Z,27.17
2022-12-25T04:23:33.054Z,23.48
2022-12-25T04:26:18.417Z,22.70
2022-12-25T04:29:03.918Z,22.48
2022-12-25T04:31:49.324Z,20.67
2022-12-25T04:34:34.806Z,23.92
2022-12-25T04:37:01.540Z,22.10
2022-12-25T04:39:28.545Z,24.02
2022-12-25T04:41:55.271Z,24.58
2022-12-25T04:44:22.318Z,24.58
2022-12-25T04:46:49.166Z,21.67
2022-12-25T04:49:16.324Z,22.05
2022-12-25T04:51:43.063Z,20.42
2022-12-25T04:54:10.162Z,22.17
2022-12-25T04:56:43.493Z,21.98
2022-12-25T04:59:12.948Z,19.90
2022-12-25T05:01:39.771Z,18.67
2022-12-25T05:04:06.944Z,21.42
2022-12-25T05:06:33.642Z,16.35
2022-12-25T05:09:00.655Z,23.52
2022-12-25T05:11:27.688Z,22.30
2022-12-25T05:13:54.787Z,27.65
2022-12-25T05:16:21.776Z,31.85
2022-12-25T05:18:49.537Z,36.70
2022-12-25T05:21:16.667Z,36.90
2022-12-25T05:23:48.685Z,39.08
2022-12-25T05:26:16.993Z,36.97
2022-12-25T05:28:44.196Z,43.50
2022-12-25T05:31:11.225Z,43.83
2022-12-25T05:33:38.342Z,41.03
2022-12-25T05:36:06.113Z,40.83
2022-12-25T05:38:33.383Z,42.22
2022-12-25T05:41:00.164Z,39.00
2022-12-25T05:43:27.808Z,38.70
2022-12-25T05:45:54.911Z,41.25
2022-12-25T05:48:22.004Z,38.95
2022-12-25T05:50:48.738Z,38.83
2022-12-25T05:53:15.964Z,40.00
2022-12-25T05:55:43.682Z,37.78
2022-12-25T05:58:10.984Z,35.88
2022-12-25T06:00:37.758Z,36.85
2022-12-25T06:03:04.933Z,36.92
2022-12-25T06:05:32.144Z,33.22
2022-12-25T06:07:59.189Z,35.95
2022-12-25T06:10:25.928Z,36.38
2022-12-25T06:12:52.986Z,35.53
2022-12-25T06:15:19.742Z,35.47
2022-12-25T06:17:46.830Z,34.97
2022-12-25T06:20:13.533Z,34.55
2022-12-25T06:22:40.585Z,33.55
2022-12-25T06:25:08.572Z,33.17
2022-12-25T06:27:35.598Z,30.83
2022-12-25T06:30:02.641Z,29.90
2022-12-25T06:32:29.722Z,33.47
2022-12-25T06:34:56.465Z,34.63
2022-12-25T06:37:23.481Z,38.03
2022-12-25T06:39:50.225Z,34.50
2022-12-25T06:42:17.234Z,33.47
2022-12-25T06:44:44.747Z,33.78
2022-12-25T06:47:11.893Z,34.75
2022-12-25T06:49:38.617Z,34.25
2022-12-25T06:52:05.713Z,29.00
2022-12-25T06:54:32.439Z,33.40
2022-12-25T06:56:59.516Z,32.10
2022-12-25T06:59:26.236Z,34.45
2022-12-25T07:01:58.546Z,33.80
2022-12-25T07:04:40.621Z,36.53
2022-12-25T07:07:09.191Z,31.77
2022-12-25T07:09:36.369Z,30.42
2022-12-25T07:12:20.452Z,34.25
2022-12-25T07:14:50.315Z,36.60
2022-12-25T07:17:17.624Z,34.25
2022-12-25T07:19:45.421Z,32.33
2022-12-25T07:22:13.397Z,30.67
2022-12-25T07:24:40.162Z,34.72
2022-12-25T07:27:08.346Z,33.33
2022-12-25T07:29:35.247Z,35.10
2022-12-25T07:32:02.370Z,35.33
2022-12-25T07:34:29.198Z,35.78
2022-12-25T07:36:56.288Z,36.38
2022-12-25T07:39:23.898Z,35.85
2022-12-25T07:41:51.356Z,33.90
2022-12-25T07:44:18.263Z,35.05
2022-12-25T07:46:45.487Z,37.90
2022-12-25T07:49:12.376Z,38.40
2022-12-25T07:51:39.535Z,37.85
2022-12-25T07:54:06.336Z,34.83
2022-12-25T07:56:33.379Z,41.15
2022-12-25T07:59:00.199Z,39.05
2022-12-25T08:01:27.942Z,45.33
2022-12-25T08:03:55.643Z,56.47
2022-12-25T08:06:29.532Z,61.47
2022-12-25T08:09:07.325Z,55.80
2022-12-25T08:11:34.495Z,60.53
2022-12-25T08:14:01.376Z,64.93
2022-12-25T08:16:28.521Z,56.17
2022-12-25T08:18:55.272Z,70.43
2022-12-25T08:21:22.468Z,71.57
2022-12-25T08:23:49.230Z,71.60
2022-12-25T08:26:20.679Z,73.20
2022-12-25T08:28:47.791Z,83.00
2022-12-25T08:31:19.995Z,84.90
2022-12-25T08:33:47.434Z,78.63
2022-12-25T08:36:15.754Z,82.53
2022-12-25T08:38:42.574Z,81.22
2022-12-25T08:41:09.953Z,80.60
2022-12-25T08:43:36.682Z,79.63
2022-12-25T08:46:03.919Z,77.88
2022-12-25T08:48:30.852Z,79.88
2022-12-25T08:50:58.095Z,79.30
2022-12-25T08:53:24.860Z,77.25
2022-12-25T08:56:01.669Z,75.50
2022-12-25T08:58:28.451Z,74.65
2022-12-25T09:00:56.066Z,70.97
2022-12-25T09:03:23.576Z,70.25
2022-12-25T09:05:51.497Z,66.93
2022-12-25T09:08:18.711Z,69.40
2022-12-25T09:10:45.781Z,71.13
2022-12-25T09:13:12.909Z,73.50
2022-12-25T09:15:40.390Z,72.72
2022-12-25T09:18:07.186Z,75.45
2022-12-25T09:20:34.281Z,70.15
2022-12-25T09:23:00.993Z,69.25
2022-12-25T09:25:28.102Z,61.80
2022-12-25T09:27:56.351Z,68.85
2022-12-25T09:30:23.441Z,69.75
2022-12-25T09:32:50.289Z,63.75
2022-12-25T09:35:20.157Z,57.35
2022-12-25T09:37:46.920Z,61.88
2022-12-25T09:40:17.725Z,64.75
2022-12-25T09:42:44.573Z,59.58
2022-12-25T09:45:14.796Z,60.30
2022-12-25T09:47:42.515Z,60.70
2022-12-25T09:50:19.601Z,57.22
2022-12-25T09:52:47.457Z,54.80
2022-12-25T09:55:21.014Z,52.72
2022-12-25T09:57:50.674Z,53.58
2022-12-25T10:00:20.268Z,52.70
2022-12-25T10:02:50.359Z,54.95
2022-12-25T10:05:23.367Z,55.38
2022-12-25T10:08:14.024Z,50.55
2022-12-25T10:10:51.372Z,49.25
2022-12-25T10:13:27.333Z,51.22
2022-12-25T10:16:00.535Z,47.65
2022-12-25T10:18:45.639Z,49.28
2022-12-25T10:21:14.432Z,51.13
2022-12-25T10:24:11.073Z,46.33
2022-12-25T10:26:38.145Z,54.42
2022-12-25T10:29:15.959Z,52.50
2022-12-25T10:31:47.197Z,48.53
2022-12-25T10:34:14.088Z,49.33
2022-12-25T10:36:42.099Z,49.30
2022-12-25T10:39:15.218Z,44.63
2022-12-25T10:42:10.249Z,44.28
2022-12-25T10:44:37.117Z,42.88
2022-12-25T10:47:04.715Z,44.78
2022-12-25T10:49:36.923Z,49.63
2022-12-25T10:52:04.371Z,39.33
2022-12-25T10:54:35.737Z,42.53
2022-12-25T10:57:08.976Z,39.65
2022-12-25T10:59:42.377Z,37.88
2022-12-25T11:02:28.767Z,39.42
2022-12-25T11:05:07.217Z,33.95
2022-12-25T11:07:43.091Z,39.63
2022-12-25T11:10:31.212Z,38.33
2022-12-25T11:12:59.662Z,36.45
2022-12-25T11:15:29.490Z,30.63
2022-12-25T11:17:56.568Z,36.78
2022-12-25T11:20:23.346Z,32.65
2022-12-25T11:22:50.417Z,32.72
2022-12-25T11:25:25.768Z,31.27
2022-12-25T11:28:03.103Z,31.55
2022-12-25T11:30:30.547Z,35.90
2022-12-25T11:32:59.447Z,34.90
2022-12-25T11:35:29.728Z,32.50
2022-12-25T11:37:56.961Z,35.97
2022-12-25T11:40:29.705Z,29.40
2022-12-25T11:43:14.577Z,33.88
2022-12-25T11:45:46.981Z,33.50
2022-12-25T11:48:28.997Z,32.00
2022-12-25T11:51:02.550Z,31.92
2022-12-25T11:53:30.848Z,31.15
2022-12-25T11:56:08.892Z,35.03
2022-12-25T11:58:44.784Z,35.00
2022-12-25T12:01:16.362Z,32.03
2022-12-25T12:03:43.462Z,30.73
2022-12-25T12:06:43.609Z,34.70
2022-12-25T12:09:35.690Z,32.90
2022-12-25T12:12:23.025Z,27.83
2022-12-25T12:14:53.547Z,33.03
2022-12-25T12:17:20.335Z,30.20
2022-12-25T12:19:47.425Z,30.83
2022-12-25T12:22:23.064Z,28.60
2022-12-25T12:24:58.441Z,32.10
2022-12-25T12:27:59.826Z,28.00
2022-12-25T12:30:32.022Z,28.35
2022-12-25T12:33:01.255Z,26.63
2022-12-25T12:35:32.793Z,33.90
2022-12-25T12:38:03.723Z,28.88
2022-12-25T12:40:58.155Z,28.30
2022-12-25T12:43:35.392Z,31.40
2022-12-25T12:46:07.343Z,36.70
2022-12-25T12:48:39.298Z,29.63
2022-12-25T12:51:08.459Z,32.17
2022-12-25T12:53:35.268Z,29.58
2022-12-25T12:56:17.110Z,27.85
2022-12-25T12:58:50.128Z,31.58
2022-12-25T13:01:23.530Z,33.10
2022-12-25T13:04:05.285Z,38.15
2022-12-25T13:07:03.170Z,45.47
2022-12-25T13:09:46.643Z,40.25
2022-12-25T13:12:15.282Z,47.42
2022-12-25T13:14:46.120Z,43.28
2022-12-25T13:17:14.745Z,43.95
2022-12-25T13:19:42.424Z,48.13
2022-12-25T13:22:21.432Z,40.83
2022-12-25T13:24:55.017Z,35.03
2022-12-25T13:27:24.187Z,35.47
2022-12-25T13:29:50.991Z,44.95
2022-12-25T13:32:22.458Z,46.88
2022-12-25T13:34:49.224Z,47.75
2022-12-25T13:37:18.114Z,49.38
2022-12-25T13:39:58.064Z,50.92
2022-12-25T13:42:44.739Z,45.13
2022-12-25T13:45:14.528Z,54.13
2022-12-25T13:47:49.910Z,47.72
2022-12-25T13:50:33.361Z,39.95
2022-12-25T13:53:14.010Z,46.38
2022-12-25T13:55:40.784Z,45.25
2022-12-25T13:58:07.926Z,46.20
2022-12-25T14:00:47.043Z,46.70
2022-12-25T14:03:19.711Z,43.22
2022-12-25T14:05:48.438Z,45.10
2022-12-25T14:08:19.691Z,41.30
2022-12-25T14:10:48.776Z,43.40
2022-12-25T14:13:15.840Z,46.10
2022-12-25T14:15:42.656Z,48.40
2022-12-25T14:18:14.879Z,49.83
2022-12-25T14:20:42.466Z,80.20
2022-12-25T14:23:14.381Z,140.50
2022-12-25T14:25:45.500Z,173.32
2022-12-25T14:28:32.171Z,183.77
2022-12-25T14:31:00.450Z,206.85
2022-12-25T14:33:28.231Z,229.50
2022-12-25T14:35:55.000Z,237.63
2022-12-25T14:38:39.619Z,273.73
2022-12-25T14:41:18.678Z,266.17
2022-12-25T14:43:52.918Z,226.98
2022-12-25T14:47:22.646Z,275.13
2022-12-25T14:50:41.998Z,274.92
2022-12-25T14:53:18.526Z,292.25
2022-12-25T14:55:50.453Z,291.73
2022-12-25T14:58:22.889Z,284.27
2022-12-25T15:01:02.522Z,306.05
2022-12-25T15:03:31.268Z,307.75
2022-12-25T15:06:01.944Z,310.48
2022-12-25T15:08:29.839Z,313.55
2022-12-25T15:11:00.979Z,343.38
2022-12-25T15:13:29.192Z,306.05
2022-12-25T15:16:41.619Z,311.88
2022-12-25T15:19:08.908Z,326.17
2022-12-25T15:21:36.577Z,298.38
2022-12-25T15:24:04.056Z,303.02
2022-12-25T15:26:31.734Z,294.90
2022-12-25T15:28:58.744Z,296.60
2022-12-25T15:31:30.623Z,286.05
2022-12-25T15:33:58.740Z,299.85
2022-12-25T15:36:26.607Z,294.73
2022-12-25T15:38:53.869Z,289.23
2022-12-25T15:41:46.703Z,293.80
2022-12-25T15:44:14.299Z,297.20
2022-12-25T15:46:42.104Z,289.42
2022-12-25T15:49:10.646Z,300.35
2022-12-25T15:51:38.190Z,299.15
2022-12-25T15:54:18.469Z,295.73
2022-12-25T15:56:55.457Z,273.33
2022-12-25T15:59:22.678Z,277.45
2022-12-25T16:01:57.688Z,263.40
2022-12-25T16:04:25.333Z,272.52
2022-12-25T16:06:55.035Z,255.18
2022-12-25T16:09:23.307Z,253.25
2022-12-25T16:11:50.578Z,248.05
2022-12-25T16:14:18.834Z,242.38
2022-12-25T16:16:45.880Z,226.27
2022-12-25T16:19:12.606Z,226.95
2022-12-25T16:21:43.867Z,216.85
2022-12-25T16:24:10.630Z,218.25
2022-12-25T16:26:37.803Z,217.25
2022-12-25T16:29:07.286Z,211.20
2022-12-25T16:31:35.867Z,209.40
2022-12-25T16:34:03.164Z,209.98
2022-12-25T16:36:31.399Z,211.38
2022-12-25T16:38:58.310Z,197.75
2022-12-25T16:41:25.474Z,200.57
2022-12-25T16:43:52.266Z,193.93
2022-12-25T16:46:29.168Z,190.95
2022-12-25T16:49:02.904Z,192.05
2022-12-25T16:51:30.843Z,188.05
2022-12-25T16:53:58.603Z,185.27
2022-12-25T16:56:28.418Z,183.88
2022-12-25T16:59:13.248Z,188.05
2022-12-25T17:01:43.438Z,177.90
2022-12-25T17:04:10.449Z,176.55
2022-12-25T17:06:37.668Z,173.25
2022-12-25T17:09:04.446Z,170.98
2022-12-25T17:11:31.971Z,172.82
2022-12-25T17:14:01.980Z,173.32
2022-12-25T17:16:31.162Z,165.73
2022-12-25T17:19:01.446Z,169.13
2022-12-25T17:21:28.713Z,153.60
2022-12-25T17:24:01.723Z,160.43
2022-12-25T17:26:31.684Z,146.27
2022-12-25T17:28:58.568Z,152.75
2022-12-25T17:31:25.739Z,148.10
2022-12-25T17:33:52.507Z,140.80
2022-12-25T17:36:20.394Z,148.27
2022-12-25T17:38:47.685Z,140.68
2022-12-25T17:41:16.059Z,135.23
2022-12-25T17:43:44.327Z,139.45
2022-12-25T17:46:12.456Z,129.98
2022-12-25T17:48:39.277Z,127.45
2022-12-25T17:51:08.613Z,125.13
2022-12-25T17:53:36.388Z,134.20
2022-12-25T17:56:03.665Z,123.43
2022-12-25T17:58:30.501Z,125.05
2022-12-25T18:00:57.653Z,128.70
2022-12-25T18:03:24.641Z,129.30
2022-12-25T18:05:51.761Z,116.78
2022-12-25T18:08:18.564Z,119.63
2022-12-25T18:10:45.770Z,115.47
2022-12-25T18:13:12.603Z,118.57
2022-12-25T18:15:40.020Z,115.07
2022-12-25T18:18:07.794Z,111.85
2022-12-25T18:20:39.919Z,112.38
2022-12-25T18:23:08.305Z,114.45
2022-12-25T18:25:39.911Z,107.93
2022-12-25T18:28:06.622Z,107.68
2022-12-25T18:30:33.769Z,108.57
2022-12-25T18:33:00.523Z,110.65
2022-12-25T18:35:29.924Z,103.78
2022-12-25T18:37:56.707Z,110.85
2022-12-25T18:40:23.970Z,106.80
2022-12-25T18:42:53.745Z,104.55
2022-12-25T18:45:23.503Z,98.53
2022-12-25T18:47:50.211Z,98.68
2022-12-25T18:50:17.325Z,97.45
2022-12-25T18:52:50.326Z,90.80
2022-12-25T18:55:18.514Z,96.85
2022-12-25T18:57:45.577Z,95.25
2022-12-25T19:00:12.857Z,98.60
2022-12-25T19:02:39.888Z,97.05
2022-12-25T19:05:07.673Z,90.60
2022-12-25T19:07:34.536Z,97.03
2022-12-25T19:10:01.634Z,91.22
2022-12-25T19:12:28.481Z,99.25
2022-12-25T19:14:55.906Z,94.22
2022-12-25T19:17:29.608Z,98.78
2022-12-25T19:19:58.563Z,95.88
2022-12-25T19:22:26.260Z,94.78
2022-12-25T19:24:53.339Z,87.22
2022-12-25T19:27:20.055Z,98.25
2022-12-25T19:29:47.076Z,89.93
2022-12-25T19:32:13.849Z,98.97
2022-12-25T19:34:40.888Z,92.38
2022-12-25T19:37:07.743Z,83.75
2022-12-25T19:39:34.796Z,92.55
2022-12-25T19:42:01.530Z,89.72
2022-12-25T19:44:28.621Z,88.10
2022-12-25T19:46:55.915Z,86.80
2022-12-25T19:49:23.201Z,95.55
2022-12-25T19:51:49.969Z,88.60
2022-12-25T19:54:18.845Z,92.28
2022-12-25T19:56:45.895Z,90.68
2022-12-25T19:59:14.401Z,86.43
2022-12-25T20:01:41.346Z,85.95
2022-12-25T20:04:09.709Z,79.57
2022-12-25T20:06:39.181Z,84.65
2022-12-25T20:09:07.885Z,84.03
2022-12-25T20:11:35.079Z,86.68
2022-12-25T20:14:02.325Z,82.72
2022-12-25T20:16:29.235Z,89.10
2022-12-25T20:18:57.208Z,88.15
2022-12-25T20:21:24.359Z,93.53
2022-12-25T20:23:52.084Z,88.75
2022-12-25T20:26:20.567Z,80.75
2022-12-25T20:28:47.534Z,88.22
2022-12-25T20:31:15.887Z,82.75
2022-12-25T20:33:42.830Z,82.28
2022-12-25T20:36:10.254Z,91.90
2022-12-25T20:38:37.133Z,81.55
2022-12-25T20:43:55.893Z,85.10
2022-12-25T20:46:23.588Z,85.10
2022-12-25T20:48:50.461Z,86.13
2022-12-25T20:51:19.181Z,81.97
2022-12-25T20:53:46.306Z,78.68
2022-12-25T20:56:14.533Z,78.78
2022-12-25T20:58:41.513Z,80.25
2022-12-25T21:01:11.525Z,86.00
2022-12-25T21:03:38.620Z,83.25
2022-12-25T21:06:06.325Z,84.60
2022-12-25T21:08:33.130Z,84.88
2022-12-25T21:11:04.092Z,83.05
2022-12-25T21:13:35.997Z,83.35
2022-12-25T21:16:08.181Z,84.05
2022-12-25T21:18:35.040Z,91.53
2022-12-25T21:21:05.601Z,87.82
2022-12-25T21:23:32.705Z,89.75
2022-12-25T21:25:59.815Z,87.22
2022-12-25T21:28:27.199Z,88.90
2022-12-25T21:30:54.353Z,87.00
2022-12-25T21:33:39.833Z,95.25
2022-12-25T21:36:11.309Z,94.32
2022-12-25T21:38:38.436Z,97.18
2022-12-25T21:41:09.710Z,95.75
2022-12-25T21:43:36.975Z,100.50
2022-12-25T21:46:05.535Z,97.57
2022-12-25T21:48:32.688Z,89.95
2022-12-25T21:51:25.656Z,90.90
2022-12-25T21:53:52.520Z,99.75
2022-12-25T21:56:19.635Z,101.35
2022-12-25T21:58:47.261Z,102.22
2022-12-25T22:01:16.874Z,92.68
2022-12-25T22:03:44.217Z,105.38
2022-12-25T22:06:30.701Z,101.18
2022-12-25T22:08:57.455Z,94.55
2022-12-25T22:11:43.669Z,104.88
2022-12-25T22:14:51.297Z,103.60
2022-12-25T22:17:40.773Z,103.63
2022-12-25T22:20:09.197Z,108.80
2022-12-25T22:22:36.265Z,111.18
2022-12-25T22:25:03.788Z,113.40
2022-12-25T22:27:36.328Z,120.00
2022-12-25T22:30:03.599Z,118.45
2022-12-25T22:32:30.722Z,110.50
2022-12-25T22:34:57.560Z,114.00
2022-12-25T22:37:24.648Z,116.13
2022-12-25T22:39:51.407Z,113.93
2022-12-25T22:42:18.657Z,116.15
2022-12-25T22:44:47.446Z,111.80
2022-12-25T22:47:15.390Z,120.25
2022-12-25T22:49:42.163Z,115.90
2022-12-25T22:52:09.906Z,116.88
2022-12-25T22:54:36.968Z,118.80
2022-12-25T22:57:04.194Z,119.70
2022-12-25T22:59:31.110Z,124.35
2022-12-25T23:01:58.414Z,132.25
2022-12-25T23:04:25.213Z,118.32
2022-12-25T23:06:52.259Z,127.47
2022-12-25T23:09:24.528Z,125.10
2022-12-25T23:11:52.011Z,132.43
2022-12-25T23:14:37.493Z,127.68
2022-12-25T23:19:50.041Z,137.57
2022-12-25T23:25:20.982Z,128.10
2022-12-25T23:30:15.961Z,130.15
2022-12-25T23:32:43.499Z,137.02
2022-12-25T23:35:10.821Z,135.93
2022-12-25T23:37:37.882Z,135.88
2022-12-25T23:40:05.339Z,128.23
2022-12-25T23:42:32.503Z,128.80
2022-12-25T23:44:59.279Z,132.82
2022-12-25T23:47:26.335Z,136.02
2022-12-25T23:49:53.116Z,127.75
2022-12-25T23:52:20.172Z,132.43
2022-12-25T23:54:46.893Z,130.88
2022-12-25T23:57:13.969Z,117.70
2022-12-25T23:59:40.770Z,116.95
